Time;durP1;ratioP1;P1;durP2;ratioP2;P2;SDS_P1;SDS_P2;PMS_P1;PMS_P2;Temp;Humidity;BMP_temperature;BMP_pressure;BME280_temperature;BME280_humidity;BME280_pressure;Samples;Min_cycle;Max_cycle;Signal;HPM_P1;HPM_P2
2022/09/19 00:01:18;;;;;;;0.10;0.10;;;12.00;99.90;;;;;;4874062;29;20083;-85
2022/09/19 00:03:50;;;;;;;0.15;0.15;;;12.20;99.90;;;;;;4859114;29;20061;-85
2022/09/19 00:06:16;;;;;;;0.20;0.20;;;12.00;99.90;;;;;;4869440;29;20390;-86
2022/09/19 00:08:43;;;;;;;0.20;0.20;;;12.00;99.90;;;;;;4859984;29;20085;-85
2022/09/19 00:11:10;;;;;;;0.20;0.20;;;12.10;99.90;;;;;;4874710;29;20109;-85
2022/09/19 00:13:44;;;;;;;0.20;0.20;;;12.00;99.90;;;;;;4859856;29;20045;-86
2022/09/19 00:16:10;;;;;;;0.20;0.20;;;12.10;99.90;;;;;;4858697;29;20077;-85
2022/09/19 00:18:36;;;;;;;0.20;0.20;;;12.10;99.90;;;;;;4874524;29;20045;-86
2022/09/19 00:21:01;;;;;;;0.20;0.20;;;12.10;99.90;;;;;;4858789;29;20512;-86
2022/09/19 00:26:17;;;;;;;0.20;0.20;;;12.10;99.90;;;;;;4876753;29;20088;-85
2022/09/19 00:28:44;;;;;;;0.20;0.20;;;12.20;99.90;;;;;;4855434;29;20490;-86
2022/09/19 00:31:17;;;;;;;0.20;0.20;;;12.10;99.90;;;;;;4856100;29;20460;-86
2022/09/19 00:33:44;;;;;;;0.20;0.20;;;12.10;99.90;;;;;;4869568;29;20060;-86
2022/09/19 00:36:10;;;;;;;0.10;0.10;;;12.10;99.90;;;;;;4858939;29;20437;-86
2022/09/19 00:38:36;;;;;;;0.13;0.13;;;12.20;99.90;;;;;;4875476;29;20109;-84
2022/09/19 00:41:02;;;;;;;0.20;0.20;;;12.10;99.90;;;;;;4873695;29;20055;-86
2022/09/19 00:43:46;;;;;;;0.20;0.20;;;12.10;99.90;;;;;;4857012;29;20060;-84
2022/09/19 00:46:12;;;;;;;0.20;0.20;;;12.10;99.90;;;;;;4854853;29;20068;-85
2022/09/19 00:48:41;;;;;;;0.20;0.20;;;12.10;99.90;;;;;;4874494;29;20041;-85
2022/09/19 00:51:10;;;;;;;0.20;0.20;;;12.20;99.90;;;;;;4856308;29;20053;-86
2022/09/19 00:53:37;;;;;;;0.20;0.20;;;12.20;99.90;;;;;;4858573;29;20563;-84
2022/09/19 00:56:04;;;;;;;0.20;0.20;;;12.20;99.90;;;;;;4857588;29;20092;-84
2022/09/19 00:58:33;;;;;;;0.10;0.10;;;12.20;99.90;;;;;;4874551;29;20081;-84
2022/09/19 01:00:59;;;;;;;0.20;0.20;;;12.20;99.90;;;;;;4856669;29;20049;-84
2022/09/19 01:03:27;;;;;;;0.15;0.15;;;12.20;99.90;;;;;;4859775;29;20078;-84
2022/09/19 01:06:24;;;;;;;0.20;0.20;;;12.20;99.90;;;;;;4874341;29;20049;-86
2022/09/19 01:09:25;;;;;;;0.20;0.20;;;12.20;99.90;;;;;;4859357;29;20519;-84
2022/09/19 01:11:57;;;;;;;;;;;12.20;99.90;;;;;;4868823;29;20135;-84
2022/09/19 01:14:37;;;;;;;0.20;0.20;;;12.20;99.90;;;;;;4859129;29;20462;-84
2022/09/19 01:17:26;;;;;;;0.17;0.17;;;12.20;99.90;;;;;;4856283;29;20057;-84
2022/09/19 01:20:32;;;;;;;0.10;0.10;;;12.30;99.90;;;;;;4873590;29;20057;-85
2022/09/19 01:23:27;;;;;;;0.10;0.10;;;12.30;99.90;;;;;;4853455;29;20397;-85
2022/09/19 01:25:55;;;;;;;0.10;0.10;;;12.30;99.90;;;;;;4842180;29;20053;-86
2022/09/19 01:28:29;;;;;;;0.20;0.20;;;12.30;99.90;;;;;;4874206;29;20112;-85
2022/09/19 01:31:27;;;;;;;0.10;0.10;;;12.30;99.90;;;;;;4873038;29;20041;-86
2022/09/19 01:34:17;;;;;;;0.20;0.20;;;12.30;99.90;;;;;;4837681;29;20081;-83
2022/09/19 01:36:52;;;;;;;0.20;0.20;;;12.30;99.90;;;;;;4874237;29;20184;-82
2022/09/19 01:39:23;;;;;;;0.20;0.20;;;12.20;99.90;;;;;;4858303;29;20049;-85
2022/09/19 01:41:53;;;;;;;0.10;0.10;;;12.20;99.90;;;;;;4854877;29;20057;-86
2022/09/19 01:44:22;;;;;;;0.20;0.20;;;12.20;99.90;;;;;;4858190;29;20061;-85
2022/09/19 01:46:57;;;;;;;0.13;0.13;;;12.20;99.90;;;;;;4873121;29;20033;-84
2022/09/19 01:49:51;;;;;;;0.20;0.20;;;12.20;99.90;;;;;;4856171;29;20041;-86
2022/09/19 01:52:30;;;;;;;0.20;0.20;;;12.30;99.90;;;;;;4857497;29;20136;-83
2022/09/19 01:54:59;;;;;;;0.20;0.20;;;12.30;99.90;;;;;;4874067;29;20090;-85
2022/09/19 01:58:10;;;;;;;0.20;0.20;;;12.30;99.90;;;;;;4873661;29;20136;-84
2022/09/19 02:00:44;;;;;;;0.10;0.10;;;12.20;99.90;;;;;;4869308;29;20460;-85
2022/09/19 02:03:36;;;;;;;0.10;0.10;;;12.20;99.90;;;;;;4856089;29;20108;-84
2022/09/19 02:06:19;;;;;;;0.10;0.10;;;12.20;99.90;;;;;;4875261;29;20089;-85
2022/09/19 02:08:47;;;;;;;0.17;0.17;;;12.20;99.90;;;;;;4858437;29;20088;-82
2022/09/19 02:11:18;;;;;;;0.10;0.10;;;12.30;99.90;;;;;;4855640;29;20055;-83
2022/09/19 02:13:49;;;;;;;0.10;0.10;;;12.30;99.90;;;;;;4869576;29;20049;-84
2022/09/19 02:16:36;;;;;;;0.17;0.17;;;12.30;99.90;;;;;;4873323;29;20107;-83
2022/09/19 02:19:12;;;;;;;0.10;0.10;;;12.30;99.90;;;;;;4873678;29;20053;-85
2022/09/19 02:21:54;;;;;;;0.20;0.20;;;12.20;99.90;;;;;;4857123;29;20045;-84
2022/09/19 02:24:27;;;;;;;0.20;0.20;;;12.30;99.90;;;;;;4873444;29;20041;-82
2022/09/19 02:26:59;;;;;;;0.20;0.20;;;12.30;99.90;;;;;;4856320;29;20057;-83
2022/09/19 02:29:30;;;;;;;0.20;0.20;;;12.30;99.90;;;;;;4857488;29;20065;-84
2022/09/19 02:31:57;;;;;;;0.20;0.20;;;12.20;99.90;;;;;;4855382;29;20049;-84
2022/09/19 02:34:23;;;;;;;0.20;0.20;;;12.30;99.90;;;;;;4874967;29;20060;-83
2022/09/19 02:36:55;;;;;;;0.20;0.20;;;12.20;99.90;;;;;;4855899;29;20052;-86
2022/09/19 02:39:50;;;;;;;0.10;0.10;;;12.20;99.90;;;;;;4857319;29;20049;-84
2022/09/19 02:42:52;;;;;;;0.10;0.10;;;12.20;99.90;;;;;;4857599;29;20057;-83
2022/09/19 02:45:29;;;;;;;0.20;0.20;;;12.10;99.90;;;;;;4868326;29;20053;-85
2022/09/19 02:48:09;;;;;;;0.20;0.20;;;12.00;99.90;;;;;;4856488;29;20048;-82
2022/09/19 02:50:53;;;;;;;0.10;0.10;;;12.00;99.90;;;;;;4876758;29;20052;-83
2022/09/19 02:53:26;;;;;;;0.10;0.10;;;12.00;99.90;;;;;;4861032;29;20045;-83
2022/09/19 02:55:56;;;;;;;0.20;0.20;;;12.00;99.90;;;;;;4876911;29;20100;-84
2022/09/19 02:58:23;;;;;;;0.20;0.20;;;12.00;99.90;;;;;;4876343;29;20393;-85
2022/09/19 03:00:54;;;;;;;0.20;0.20;;;12.10;99.90;;;;;;4861456;29;20844;-84
2022/09/19 03:06:14;;;;;;;0.20;0.20;;;11.90;99.90;;;;;;4855134;29;20064;-86
2022/09/19 03:08:45;;;;;;;0.20;0.20;;;12.00;99.90;;;;;;4878141;29;20261;-84
2022/09/19 03:11:15;;;;;;;0.10;0.10;;;12.00;99.90;;;;;;4875480;29;20140;-82
2022/09/19 03:13:42;;;;;;;0.20;0.20;;;12.00;99.90;;;;;;4859850;29;20053;-83
2022/09/19 03:16:13;;;;;;;0.20;0.20;;;12.00;99.90;;;;;;4876779;29;20044;-85
2022/09/19 03:18:42;;;;;;;0.15;0.15;;;12.00;99.90;;;;;;4878494;29;20087;-84
2022/09/19 03:21:09;;;;;;;0.10;0.10;;;12.00;99.90;;;;;;4859703;29;20374;-85
2022/09/19 03:23:44;;;;;;;0.10;0.10;;;12.00;99.90;;;;;;4861374;29;20067;-85
2022/09/19 03:26:14;;;;;;;0.15;0.15;;;12.00;99.90;;;;;;4876265;29;20106;-86
2022/09/19 03:28:40;;;;;;;0.20;0.20;;;12.00;99.90;;;;;;4873052;29;20497;-85
2022/09/19 03:31:06;;;;;;;0.10;0.10;;;12.00;99.90;;;;;;4860359;29;20383;-85
2022/09/19 03:33:33;;;;;;;0.20;0.20;;;12.00;99.90;;;;;;4875981;29;20045;-85
2022/09/19 03:36:02;;;;;;;0.15;0.15;;;12.00;99.90;;;;;;4860992;29;20041;-85
2022/09/19 03:38:30;;;;;;;0.20;0.20;;;12.00;99.90;;;;;;4877034;29;20041;-86
2022/09/19 03:40:56;;;;;;;0.20;0.20;;;12.20;99.90;;;;;;4875179;29;20049;-85
2022/09/19 03:43:22;;;;;;;0.20;0.20;;;12.10;99.90;;;;;;4861042;29;20080;-85
2022/09/19 03:45:48;;;;;;;0.20;0.20;;;12.10;99.90;;;;;;4860544;29;20608;-85
2022/09/19 03:48:13;;;;;;;0.10;0.10;;;12.10;99.90;;;;;;4857772;29;20131;-85
2022/09/19 03:50:39;;;;;;;0.10;0.10;;;12.20;99.90;;;;;;4860438;29;20136;-84
2022/09/19 03:53:06;;;;;;;0.20;0.20;;;12.30;99.90;;;;;;4877630;29;20556;-85
2022/09/19 03:55:36;;;;;;;0.20;0.20;;;12.30;99.90;;;;;;4859074;29;20049;-87
2022/09/19 03:58:01;;;;;;;0.20;0.20;;;12.20;99.90;;;;;;4859973;29;20093;-85
2022/09/19 04:00:27;;;;;;;0.20;0.20;;;12.20;99.90;;;;;;4860349;29;20072;-86
2022/09/19 04:02:53;;;;;;;0.10;0.10;;;12.20;99.90;;;;;;4857869;29;20055;-85
2022/09/19 04:05:18;;;;;;;0.20;0.20;;;12.30;99.90;;;;;;4875858;29;20572;-86
2022/09/19 04:07:44;;;;;;;0.17;0.17;;;12.30;99.90;;;;;;4861324;29;20049;-85
2022/09/19 04:10:10;;;;;;;0.20;0.20;;;12.30;99.90;;;;;;4859827;29;20055;-84
2022/09/19 04:12:35;;;;;;;0.15;0.15;;;12.30;99.90;;;;;;4875471;29;20049;-84
2022/09/19 04:15:01;;;;;;;0.20;0.20;;;12.20;99.90;;;;;;4859009;29;20521;-85
2022/09/19 04:17:30;;;;;;;0.20;0.20;;;12.30;99.90;;;;;;4859683;29;20232;-86
2022/09/19 04:19:55;;;;;;;0.20;0.20;;;12.30;99.90;;;;;;4876609;29;20052;-83
2022/09/19 04:22:21;;;;;;;0.10;0.10;;;12.30;99.90;;;;;;4859651;29;20057;-86
2022/09/19 04:24:48;;;;;;;0.17;0.17;;;12.30;99.90;;;;;;4859454;29;20056;-86
2022/09/19 04:27:14;;;;;;;0.20;0.20;;;12.30;99.90;;;;;;4858842;29;20131;-86
2022/09/19 04:29:43;;;;;;;0.20;0.20;;;12.30;99.90;;;;;;4859325;29;20525;-86
2022/09/19 04:32:09;;;;;;;0.20;0.20;;;12.20;99.90;;;;;;4857842;29;20124;-85
2022/09/19 04:34:35;;;;;;;0.15;0.15;;;12.30;99.90;;;;;;4876371;29;20057;-84
2022/09/19 04:37:06;;;;;;;0.20;0.20;;;12.30;99.90;;;;;;4875016;29;20052;-84
2022/09/19 04:39:32;;;;;;;0.20;0.20;;;12.30;99.90;;;;;;4850632;29;20056;-84
2022/09/19 04:41:59;;;;;;;0.10;0.10;;;12.20;99.90;;;;;;4874916;29;20041;-86
2022/09/19 04:44:29;;;;;;;0.20;0.20;;;12.20;99.90;;;;;;4875861;29;20041;-86
2022/09/19 04:46:58;;;;;;;0.10;0.10;;;12.20;99.90;;;;;;4857873;29;20128;-86
2022/09/19 04:49:36;;;;;;;0.20;0.20;;;12.20;99.90;;;;;;4876795;29;20033;-86
2022/09/19 04:52:03;;;;;;;0.10;0.10;;;12.20;99.90;;;;;;4859440;29;20471;-87
2022/09/19 04:54:36;;;;;;;0.10;0.10;;;12.20;99.90;;;;;;4863461;29;20577;-86
2022/09/19 04:57:05;;;;;;;0.13;0.13;;;12.20;99.90;;;;;;4875411;29;20077;-85
2022/09/19 04:59:31;;;;;;;0.20;0.20;;;12.10;99.90;;;;;;4874115;29;20068;-84
2022/09/19 05:01:58;;;;;;;0.20;0.20;;;12.20;99.90;;;;;;4855795;29;20124;-85
2022/09/19 05:04:24;;;;;;;0.10;0.10;;;12.20;99.90;;;;;;4855980;29;20056;-85
2022/09/19 05:06:51;;;;;;;0.20;0.20;;;12.30;99.90;;;;;;4857324;29;20041;-86
2022/09/19 05:09:17;;;;;;;0.20;0.20;;;12.20;99.90;;;;;;4875529;29;20056;-85
2022/09/19 05:11:46;;;;;;;0.20;0.20;;;12.20;99.90;;;;;;4858231;29;20056;-85
2022/09/19 05:14:13;;;;;;;0.20;0.20;;;12.20;99.90;;;;;;4873286;29;20046;-84
2022/09/19 05:16:40;;;;;;;0.20;0.20;;;12.20;99.90;;;;;;4857911;29;20515;-85
2022/09/19 05:19:06;;;;;;;0.17;0.17;;;12.20;99.90;;;;;;4874021;29;20060;-83
2022/09/19 05:21:33;;;;;;;0.10;0.10;;;12.20;99.90;;;;;;4859433;29;20048;-83
2022/09/19 05:24:01;;;;;;;0.10;0.10;;;12.20;99.90;;;;;;4869528;29;20104;-86
2022/09/19 05:26:27;;;;;;;0.13;0.13;;;12.30;99.90;;;;;;4855792;29;20476;-85
2022/09/19 05:28:53;;;;;;;0.10;0.10;;;12.20;99.90;;;;;;4859921;29;20128;-85
2022/09/19 05:31:20;;;;;;;0.13;0.13;;;12.40;99.90;;;;;;4875981;29;20476;-85
2022/09/19 05:33:48;;;;;;;0.20;0.20;;;12.30;99.90;;;;;;4858167;29;20383;-83
2022/09/19 05:36:14;;;;;;;0.10;0.10;;;12.30;99.90;;;;;;4873578;29;20089;-86
2022/09/19 05:38:41;;;;;;;0.10;0.10;;;12.30;99.90;;;;;;4874474;29;20053;-85
2022/09/19 05:41:07;;;;;;;0.20;0.20;;;12.30;99.90;;;;;;4872612;29;20045;-85
2022/09/19 05:43:33;;;;;;;0.20;0.20;;;12.30;99.90;;;;;;4859045;29;20048;-84
2022/09/19 05:46:00;;;;;;;0.20;0.20;;;12.30;99.90;;;;;;4872994;29;20064;-85
2022/09/19 05:48:26;;;;;;;0.20;0.20;;;12.30;99.90;;;;;;4873837;29;20072;-85
2022/09/19 05:50:53;;;;;;;0.20;0.20;;;12.30;99.90;;;;;;4874030;29;20429;-84
2022/09/19 05:56:06;;;;;;;0.15;0.15;;;12.40;99.90;;;;;;4871605;29;20481;-85
2022/09/19 05:58:35;;;;;;;0.20;0.20;;;12.40;99.90;;;;;;4874448;29;20566;-85
2022/09/19 06:01:05;;;;;;;0.10;0.10;;;12.50;99.90;;;;;;4869213;29;20057;-85
2022/09/19 06:03:33;;;;;;;0.20;0.20;;;12.40;99.90;;;;;;4864272;29;20057;-85
2022/09/19 06:05:58;;;;;;;0.20;0.20;;;12.40;99.90;;;;;;4873637;29;20060;-85
2022/09/19 06:08:24;;;;;;;0.20;0.20;;;12.40;99.90;;;;;;4856375;29;20041;-86
2022/09/19 06:10:50;;;;;;;0.10;0.10;;;12.40;99.90;;;;;;4874616;29;20508;-84
2022/09/19 06:13:21;;;;;;;0.20;0.20;;;12.40;99.90;;;;;;4856406;29;20057;-85
2022/09/19 06:15:50;;;;;;;0.13;0.13;;;12.40;99.90;;;;;;4886482;29;20119;-87
2022/09/19 06:18:16;;;;;;;0.20;0.20;;;12.50;99.90;;;;;;4859283;29;20305;-84
2022/09/19 06:20:43;;;;;;;0.17;0.17;;;12.50;99.90;;;;;;4862489;29;20151;-83
2022/09/19 06:23:10;;;;;;;0.10;0.10;;;12.50;99.90;;;;;;4857269;29;20048;-86
2022/09/19 06:25:38;;;;;;;0.20;0.20;;;12.50;99.90;;;;;;4874090;29;20424;-82
2022/09/19 06:28:07;;;;;;;0.20;0.20;;;12.50;99.90;;;;;;4877192;29;20068;-83
2022/09/19 06:30:34;;;;;;;0.10;0.10;;;12.60;99.90;;;;;;4860562;29;20124;-83
2022/09/19 06:33:03;;;;;;;0.10;0.10;;;12.60;99.90;;;;;;4876876;29;20037;-84
2022/09/19 06:35:31;;;;;;;0.20;0.20;;;12.60;99.90;;;;;;4858795;29;20402;-83
2022/09/19 06:37:59;;;;;;;0.10;0.10;;;12.60;99.90;;;;;;4877283;29;20144;-86
2022/09/19 06:40:26;;;;;;;0.20;0.20;;;12.60;99.90;;;;;;4860873;29;20430;-85
2022/09/19 06:43:02;;;;;;;0.20;0.20;;;12.60;99.90;;;;;;4878574;29;20045;-84
2022/09/19 06:45:34;;;;;;;0.10;0.10;;;12.70;99.90;;;;;;4879024;29;20044;-84
2022/09/19 06:48:01;;;;;;;0.20;0.20;;;12.70;99.90;;;;;;4876481;29;20061;-84
2022/09/19 06:50:27;;;;;;;0.10;0.10;;;12.70;99.90;;;;;;4860476;29;20045;-84
2022/09/19 06:52:54;;;;;;;0.10;0.10;;;12.80;99.90;;;;;;4878090;29;20097;-85
2022/09/19 06:55:20;;;;;;;0.10;0.10;;;12.80;99.90;;;;;;4877558;29;20494;-84
2022/09/19 06:57:58;;;;;;;0.13;0.13;;;12.80;99.90;;;;;;4860688;29;20112;-83
2022/09/19 07:00:25;;;;;;;0.20;0.20;;;12.90;99.90;;;;;;4874091;29;20056;-83
2022/09/19 07:02:54;;;;;;;0.10;0.10;;;12.90;99.90;;;;;;4863310;29;20402;-82
2022/09/19 07:05:19;;;;;;;0.10;0.10;;;12.90;99.90;;;;;;4879500;29;20049;-83
2022/09/19 07:07:45;;;;;;;0.15;0.15;;;13.00;99.90;;;;;;4883821;29;20045;-84
2022/09/19 07:10:11;;;;;;;0.15;0.15;;;13.00;99.90;;;;;;4865837;29;20551;-83
2022/09/19 07:12:36;;;;;;;0.10;0.10;;;13.00;99.90;;;;;;4872015;29;20473;-83
2022/09/19 07:15:02;;;;;;;0.20;0.20;;;13.00;99.90;;;;;;4862267;29;20421;-83
2022/09/19 07:17:28;;;;;;;0.20;0.20;;;13.00;99.90;;;;;;4862861;29;20049;-83
2022/09/19 07:19:53;;;;;;;0.20;0.20;;;13.10;99.90;;;;;;4877977;29;20053;-83
2022/09/19 07:22:20;;;;;;;0.10;0.10;;;13.10;99.90;;;;;;4861356;29;20049;-83
2022/09/19 07:24:46;;;;;;;0.10;0.10;;;13.10;99.90;;;;;;4860452;29;20196;-82
2022/09/19 07:27:12;;;;;;;0.10;0.10;;;13.10;99.90;;;;;;4855193;29;20183;-84
2022/09/19 07:29:37;;;;;;;0.20;0.20;;;13.10;99.90;;;;;;4858156;29;20230;-82
2022/09/19 07:32:03;;;;;;;0.20;0.20;;;13.10;99.90;;;;;;4877280;29;20056;-83
2022/09/19 07:34:28;;;;;;;0.20;0.20;;;13.20;99.90;;;;;;4876678;29;20051;-83
2022/09/19 07:36:54;;;;;;;0.20;0.20;;;13.10;99.90;;;;;;4872969;29;20045;-84
2022/09/19 07:39:20;;;;;;;0.20;0.20;;;13.10;99.90;;;;;;4875787;29;20045;-83
2022/09/19 07:41:46;;;;;;;0.10;0.10;;;13.10;99.90;;;;;;4875147;29;20096;-85
2022/09/19 07:44:12;;;;;;;0.20;0.20;;;13.10;99.90;;;;;;4872724;29;20438;-84
2022/09/19 07:47:26;;;;;;;0.15;0.15;;;13.20;99.90;;;;;;4878586;29;20048;-83
2022/09/19 07:49:24;;;;;;;0.10;0.10;;;13.20;99.90;;;;;;4878037;29;20395;-84
2022/09/19 07:51:51;;;;;;;0.20;0.20;;;13.20;99.90;;;;;;4858112;29;20056;-87
2022/09/19 07:54:17;;;;;;;0.20;0.20;;;13.30;99.90;;;;;;4858353;29;20120;-90
2022/09/19 07:56:43;;;;;;;0.20;0.20;;;13.40;99.90;;;;;;4873754;29;20496;-91
2022/09/19 07:59:08;;;;;;;0.20;0.20;;;13.30;99.90;;;;;;4877925;29;20429;-86
2022/09/19 08:01:34;;;;;;;0.10;0.10;;;13.30;99.90;;;;;;4858832;29;20045;-86
2022/09/19 08:04:00;;;;;;;0.20;0.20;;;13.30;99.90;;;;;;4859635;29;20109;-86
2022/09/19 08:06:27;;;;;;;0.20;0.20;;;13.40;99.90;;;;;;4858541;29;20418;-86
2022/09/19 08:08:53;;;;;;;0.20;0.20;;;13.40;99.90;;;;;;4877255;29;20527;-85
2022/09/19 08:11:19;;;;;;;0.20;0.20;;;13.50;99.90;;;;;;4871631;29;20138;-87
2022/09/19 08:13:45;;;;;;;0.20;0.20;;;13.40;99.90;;;;;;4858625;29;20484;-86
2022/09/19 08:16:11;;;;;;;0.17;0.17;;;13.30;99.90;;;;;;4858188;29;20089;-85
2022/09/19 08:18:36;;;;;;;0.10;0.10;;;13.60;99.90;;;;;;4862601;29;20057;-87
2022/09/19 08:21:02;;;;;;;0.20;0.20;;;13.70;99.90;;;;;;4860522;29;20429;-86
2022/09/19 08:23:29;;;;;;;0.15;0.15;;;13.70;99.90;;;;;;4884427;29;20091;-87
2022/09/19 08:25:55;;;;;;;0.20;0.20;;;13.80;99.90;;;;;;4865240;29;20521;-88
2022/09/19 08:28:21;;;;;;;0.20;0.20;;;13.80;99.90;;;;;;4877754;29;20061;-85
2022/09/19 08:30:47;;;;;;;0.20;0.20;;;13.90;99.90;;;;;;4857071;29;20049;-85
2022/09/19 08:33:14;;;;;;;0.20;0.20;;;13.90;99.90;;;;;;4874368;29;20052;-85
2022/09/19 08:35:41;;;;;;;0.20;0.20;;;14.00;99.90;;;;;;4856532;29;20664;-85
2022/09/19 08:38:08;;;;;;;0.20;0.20;;;14.00;99.90;;;;;;4863440;29;20056;-82
2022/09/19 08:40:40;;;;;;;0.10;0.10;;;14.10;99.90;;;;;;4874221;29;20119;-82
2022/09/19 08:43:16;;;;;;;0.20;0.20;;;14.00;99.90;;;;;;4861340;29;20101;-82
2022/09/19 08:46:12;;;;;;;0.20;0.20;;;14.10;99.90;;;;;;4869891;29;20164;-83
2022/09/19 08:48:53;;;;;;;0.20;0.20;;;14.10;99.90;;;;;;4857884;29;20104;-83
2022/09/19 08:51:38;;;;;;;0.20;0.20;;;14.10;99.90;;;;;;4875103;29;20905;-83
2022/09/19 08:54:19;;;;;;;0.20;0.20;;;14.20;99.90;;;;;;4860421;29;20049;-83
2022/09/19 08:56:45;;;;;;;0.20;0.20;;;14.20;99.90;;;;;;4874097;29;20055;-84
2022/09/19 08:59:22;;;;;;;0.10;0.10;;;14.30;99.90;;;;;;4874815;29;20041;-86
2022/09/19 09:01:49;;;;;;;0.20;0.20;;;14.30;99.90;;;;;;4875820;29;20049;-86
2022/09/19 09:04:40;;;;;;;0.17;0.17;;;14.30;99.90;;;;;;4857427;29;20149;-84
2022/09/19 09:07:25;;;;;;;;;;;14.40;99.90;;;;;;4852415;29;20053;-85
2022/09/19 09:10:12;;;;;;;0.20;0.20;;;14.40;99.90;;;;;;4879555;29;19928;-84
2022/09/19 09:12:53;;;;;;;0.15;0.15;;;14.40;99.90;;;;;;4876144;29;20045;-83
2022/09/19 09:15:32;;;;;;;0.20;0.20;;;14.50;99.90;;;;;;4859878;29;20398;-83
2022/09/19 09:18:06;;;;;;;0.10;0.10;;;14.60;99.90;;;;;;4881864;29;20045;-85
2022/09/19 09:21:25;;;;;;;0.20;0.20;;;14.60;99.90;;;;;;4861638;29;20140;-81
2022/09/19 09:23:57;;;;;;;0.10;0.10;;;14.60;99.90;;;;;;4827253;29;20053;-83
2022/09/19 09:26:27;;;;;;;0.10;0.10;;;14.70;99.90;;;;;;4856874;29;20118;-84
2022/09/19 09:29:28;;;;;;;0.20;0.20;;;14.80;99.90;;;;;;4873478;29;20401;-82
2022/09/19 09:32:09;;;;;;;0.20;0.20;;;14.90;99.90;;;;;;4870096;29;20060;-84
2022/09/19 09:34:54;;;;;;;0.20;0.20;;;15.00;99.90;;;;;;4876782;29;20045;-85
2022/09/19 09:37:40;;;;;;;0.10;0.10;;;15.10;99.90;;;;;;4858866;29;20485;-82
2022/09/19 09:41:45;;;;;;;0.20;0.20;;;15.30;99.90;;;;;;4840880;29;20581;-83
2022/09/19 09:43:09;;;;;;;0.20;0.20;;;15.20;99.90;;;;;;4857579;29;20057;-84
2022/09/19 09:45:46;;;;;;;0.20;0.20;;;15.10;99.90;;;;;;4858055;29;20042;-84
2022/09/19 09:48:34;;;;;;;0.20;0.20;;;15.00;99.90;;;;;;4856459;29;20106;-84
2022/09/19 09:51:21;;;;;;;0.20;0.20;;;14.80;99.90;;;;;;4842775;29;20482;-83
2022/09/19 09:57:37;;;;;;;0.20;0.20;;;14.40;99.90;;;;;;4855932;29;20049;-83
2022/09/19 10:03:35;;;;;;;0.20;0.20;;;14.10;99.90;;;;;;4860472;29;20325;-84
2022/09/19 10:06:15;;;;;;;0.17;0.17;;;14.00;99.90;;;;;;4882032;29;20048;-84
2022/09/19 10:09:02;;;;;;;0.20;0.20;;;14.00;99.90;;;;;;4847307;29;20049;-84
2022/09/19 10:11:39;;;;;;;0.10;0.10;;;14.00;99.90;;;;;;4879924;29;20045;-84
2022/09/19 10:14:14;;;;;;;0.13;0.13;;;14.00;99.90;;;;;;4863218;29;20053;-84
2022/09/19 10:16:42;;;;;;;0.20;0.20;;;14.10;99.90;;;;;;4862167;29;20052;-84
2022/09/19 10:19:11;;;;;;;0.20;0.20;;;14.20;99.90;;;;;;4862574;29;20486;-85
2022/09/19 10:21:38;;;;;;;0.20;0.20;;;14.40;99.90;;;;;;4862081;29;20698;-85
2022/09/19 10:24:43;;;;;;;0.20;0.20;;;14.40;99.90;;;;;;4862971;29;20061;-84
2022/09/19 10:27:23;;;;;;;0.10;0.10;;;14.50;99.90;;;;;;4863237;29;20080;-84
2022/09/19 10:29:56;;;;;;;0.20;0.20;;;14.60;99.90;;;;;;4861424;29;20069;-83
2022/09/19 10:32:24;;;;;;;0.20;0.20;;;14.70;99.90;;;;;;4861951;29;20049;-84
2022/09/19 10:34:51;;;;;;;0.13;0.13;;;14.80;99.90;;;;;;4878536;29;20443;-83
2022/09/19 10:37:21;;;;;;;0.10;0.10;;;14.90;99.90;;;;;;4878393;29;20048;-83
2022/09/19 10:39:48;;;;;;;0.10;0.10;;;15.00;99.90;;;;;;4862378;29;20430;-82
2022/09/19 10:42:36;;;;;;;0.10;0.10;;;15.10;99.90;;;;;;4878632;29;20045;-83
2022/09/19 10:45:25;;;;;;;0.20;0.20;;;15.10;99.90;;;;;;4862875;29;20160;-83
2022/09/19 10:47:56;;;;;;;0.10;0.10;;;15.00;99.90;;;;;;4861658;29;20118;-83
2022/09/19 10:50:23;;;;;;;0.20;0.20;;;14.90;99.90;;;;;;4878808;29;20045;-83
2022/09/19 10:52:50;;;;;;;0.20;0.20;;;14.90;99.90;;;;;;4862210;29;20357;-84
2022/09/19 10:55:22;;;;;;;0.20;0.20;;;14.80;99.90;;;;;;4862047;29;20085;-83
2022/09/19 10:58:26;;;;;;;0.20;0.20;;;14.60;99.90;;;;;;4878477;29;20045;-83
2022/09/19 11:01:04;;;;;;;0.20;0.20;;;14.60;99.90;;;;;;4830524;29;20053;-84
2022/09/19 11:03:40;;;;;;;0.10;0.10;;;14.70;99.90;;;;;;4869848;29;20065;-83
2022/09/19 11:06:14;;;;;;;0.20;0.20;;;14.80;99.90;;;;;;4881575;29;20056;-83
2022/09/19 11:08:52;;;;;;;0.15;0.15;;;14.70;99.90;;;;;;4862417;29;20147;-84
2022/09/19 11:11:46;;;;;;;0.20;0.20;;;14.70;99.90;;;;;;4888352;29;20520;-84
2022/09/19 11:14:16;;;;;;;0.13;0.13;;;14.80;99.90;;;;;;4866944;29;20076;-84
2022/09/19 11:17:02;;;;;;;0.20;0.20;;;15.10;99.90;;;;;;4862703;29;20142;-83
2022/09/19 11:19:35;;;;;;;0.20;0.20;;;15.10;99.90;;;;;;4875908;29;20057;-84
2022/09/19 11:22:17;;;;;;;0.30;0.30;;;15.20;99.90;;;;;;4860948;29;20408;-84
2022/09/19 11:25:25;;;;;;;0.10;0.10;;;15.30;99.90;;;;;;4885018;29;20072;-82
2022/09/19 11:28:35;;;;;;;0.10;0.10;;;15.40;99.90;;;;;;4843004;29;20516;-82
2022/09/19 11:31:19;;;;;;;0.10;0.10;;;15.60;99.90;;;;;;4836135;29;20565;-82
2022/09/19 11:33:55;;;;;;;0.10;0.10;;;15.60;99.90;;;;;;4861354;29;20055;-81
2022/09/19 11:36:37;;;;;;;0.10;0.10;;;15.70;99.90;;;;;;4878147;29;20301;-81
2022/09/19 11:39:30;;;;;;;0.15;0.15;;;15.70;99.90;;;;;;4877513;29;20052;-81
2022/09/19 11:42:11;;;;;;;0.10;0.10;;;15.80;99.90;;;;;;4861319;29;20064;-82
2022/09/19 11:45:05;;;;;;;0.20;0.20;;;15.70;99.90;;;;;;4855817;29;20040;-83
2022/09/19 11:48:07;;;;;;;0.10;0.10;;;15.80;99.90;;;;;;4844100;29;20306;-81
2022/09/19 11:50:48;;;;;;;0.10;0.10;;;15.90;99.90;;;;;;4861933;29;20132;-82
2022/09/19 11:53:28;;;;;;;0.20;0.20;;;15.90;99.90;;;;;;4877224;29;20037;-82
2022/09/19 11:56:15;;;;;;;0.20;0.20;;;16.00;99.90;;;;;;4878174;29;20483;-82
2022/09/19 11:59:06;;;;;;;0.20;0.20;;;16.10;99.90;;;;;;4861667;29;20052;-82
2022/09/19 12:01:52;;;;;;;0.20;0.20;;;16.10;99.90;;;;;;4859442;29;20060;-81
2022/09/19 12:04:48;;;;;;;0.20;0.20;;;16.30;99.90;;;;;;4878124;29;20053;-80
2022/09/19 12:07:28;;;;;;;0.20;0.20;;;16.50;99.90;;;;;;4863432;29;20057;-81
2022/09/19 12:10:19;;;;;;;0.20;0.20;;;16.70;99.90;;;;;;4861328;29;20053;-81
2022/09/19 12:12:54;;;;;;;0.20;0.20;;;16.90;99.90;;;;;;4860491;29;20045;-82
2022/09/19 12:15:23;;;;;;;0.10;0.10;;;17.00;99.90;;;;;;4869526;29;20060;-80
2022/09/19 12:17:59;;;;;;;0.20;0.20;;;17.10;99.90;;;;;;4859771;29;20457;-81
2022/09/19 12:20:39;;;;;;;0.20;0.20;;;17.00;99.90;;;;;;4861567;29;20568;-82
2022/09/19 12:26:09;;;;;;;0.10;0.10;;;16.90;99.90;;;;;;4860096;29;20056;-82
2022/09/19 12:28:47;;;;;;;0.20;0.20;;;16.90;99.90;;;;;;4873359;29;20539;-81
2022/09/19 12:31:17;;;;;;;0.20;0.20;;;17.20;99.90;;;;;;4874170;29;20533;-82
2022/09/19 12:34:07;;;;;;;0.10;0.10;;;17.20;99.90;;;;;;4861128;29;20117;-82
2022/09/19 12:36:38;;;;;;;0.10;0.10;;;17.30;99.90;;;;;;4859786;29;20438;-81
2022/09/19 12:39:16;;;;;;;0.20;0.20;;;17.50;99.90;;;;;;4861057;29;20143;-81
2022/09/19 12:42:10;;;;;;;0.20;0.20;;;17.60;99.90;;;;;;4876896;29;20523;-81
2022/09/19 12:44:42;;;;;;;0.20;0.20;;;17.60;99.90;;;;;;4857694;29;20490;-81
2022/09/19 12:47:25;;;;;;;0.20;0.20;;;17.60;99.90;;;;;;4856349;29;20049;-81
2022/09/19 12:50:21;;;;;;;0.20;0.20;;;17.60;99.90;;;;;;4875081;29;20045;-80
2022/09/19 12:53:07;;;;;;;0.20;0.20;;;17.60;99.90;;;;;;4859326;29;20045;-80
2022/09/19 12:55:41;;;;;;;0.10;0.10;;;17.70;99.90;;;;;;4858978;29;20572;-79
2022/09/19 12:58:18;;;;;;;0.20;0.20;;;17.90;99.90;;;;;;4874746;29;20056;-80
2022/09/19 13:00:45;;;;;;;0.20;0.20;;;17.90;99.90;;;;;;4861176;29;20045;-81
2022/09/19 13:03:25;;;;;;;0.13;0.13;;;18.00;99.90;;;;;;4862214;29;20119;-81
2022/09/19 13:06:11;;;;;;;0.20;0.20;;;18.00;99.90;;;;;;4878451;29;20464;-81
2022/09/19 13:08:41;;;;;;;0.20;0.20;;;17.70;99.90;;;;;;4859165;29;20045;-80
2022/09/19 13:11:37;;;;;;;0.30;0.30;;;17.50;99.90;;;;;;4857067;29;20533;-80
2022/09/19 13:14:15;;;;;;;0.20;0.20;;;17.40;99.90;;;;;;4858667;29;20617;-81
2022/09/19 13:24:47;;;;;;;0.20;0.20;;;17.30;99.90;;;;;;4874901;29;20049;-80
2022/09/19 13:27:14;;;;;;;0.10;0.10;;;17.40;99.90;;;;;;4857711;29;20056;-80
2022/09/19 13:29:45;;;;;;;0.10;0.10;;;17.50;99.90;;;;;;4858540;29;20049;-81
2022/09/19 13:32:52;;;;;;;0.20;0.20;;;17.50;99.90;;;;;;4875133;29;20053;-80
2022/09/19 13:35:22;;;;;;;0.20;0.20;;;17.50;99.90;;;;;;4875698;29;20083;-81
2022/09/19 13:37:50;;;;;;;0.20;0.20;;;17.60;99.90;;;;;;4841373;29;20056;-80
2022/09/19 13:40:40;;;;;;;0.20;0.20;;;17.60;99.90;;;;;;4859542;29;20540;-79
2022/09/19 13:43:30;;;;;;;0.20;0.20;;;17.50;99.90;;;;;;4875605;29;20056;-81
2022/09/19 13:46:06;;;;;;;0.20;0.20;;;17.30;99.90;;;;;;4857967;29;20061;-80
2022/09/19 13:48:39;;;;;;;0.20;0.20;;;17.20;99.90;;;;;;4860251;29;20077;-81